Terminal Aerodrome Forecast
Issued by NWS

Home | Current Version | Previous Version | Text Only | Print | Product List | Glossary On
Versions: 1 2 3 4 5 6 7 8 9 10 11 12 13 14 15 16
000
FTUS46 KPDT 240500
TAFRDM
TAF
KRDM 240520Z 2406/2506 27005KT P6SM FEW060
     FM240900 18005KT P6SM SKC
     FM241800 31007KT P6SM FEW060
     FM242100 33011KT P6SM SCT060=

USA.gov is the U.S. government's official web portal to all federal, state and local government web resources and services.